Time;durP1;ratioP1;P1;durP2;ratioP2;P2;SDS_P1;SDS_P2;PMS_P1;PMS_P2;Temp;Humidity;BMP_temperature;BMP_pressure;BME280_temperature;BME280_humidity;BME280_pressure;Samples;Min_cycle;Max_cycle;Signal;HPM_P1;HPM_P2
2024/01/19 00:01:58;;;;;;;9.93;4.85;;;;;;;0.48;100.00;101268.84;5074985;28;20104;-66
2024/01/19 00:04:46;;;;;;;11.38;5.10;;;;;;;0.50;100.00;101267.63;5073603;28;20048;-66
2024/01/19 00:07:34;;;;;;;12.10;5.20;;;;;;;0.51;100.00;101263.94;5073968;28;20092;-66
2024/01/19 00:10:22;;;;;;;10.90;5.32;;;;;;;0.52;100.00;101265.59;5074496;28;20142;-66
2024/01/19 00:13:10;;;;;;;11.55;5.72;;;;;;;0.52;100.00;101267.44;5055761;28;20052;-65
2024/01/19 00:15:58;;;;;;;11.80;5.30;;;;;;;0.51;100.00;101271.16;5041150;28;20067;-66
2024/01/19 00:18:46;;;;;;;11.60;5.28;;;;;;;0.51;100.00;101266.63;5061148;28;20527;-65
2024/01/19 00:21:40;;;;;;;12.57;5.55;;;;;;;0.52;100.00;101265.59;5074723;28;20099;-65
2024/01/19 00:24:28;;;;;;;8.93;4.75;;;;;;;0.51;100.00;101266.63;5060405;28;20051;-66
2024/01/19 00:27:16;;;;;;;12.57;5.60;;;;;;;0.51;100.00;101268.47;5070176;28;20133;-65
2024/01/19 00:30:05;;;;;;;10.43;4.88;;;;;;;0.53;100.00;101272.63;5045996;28;20100;-65
2024/01/19 00:32:53;;;;;;;13.88;5.20;;;;;;;0.53;100.00;101274.44;5074769;28;20071;-64
2024/01/19 00:35:42;;;;;;;12.35;5.25;;;;;;;0.53;100.00;101275.31;5072898;28;20485;-65
2024/01/19 00:38:30;;;;;;;12.65;4.68;;;;;;;0.55;100.00;101283.13;5057981;28;20045;-66
2024/01/19 00:41:18;;;;;;;8.75;4.80;;;;;;;0.54;100.00;101289.53;5039813;28;20041;-66
2024/01/19 00:44:06;;;;;;;11.15;5.20;;;;;;;0.52;100.00;101291.56;5084558;28;20052;-65
2024/01/19 00:46:54;;;;;;;11.07;5.25;;;;;;;0.51;100.00;101324.78;5055306;28;20051;-67
2024/01/19 00:49:43;;;;;;;8.43;4.80;;;;;;;0.46;100.00;101325.34;5059579;28;20055;-66
2024/01/19 00:52:31;;;;;;;9.63;4.68;;;;;;;0.42;100.00;101319.50;5057081;28;20078;-65
2024/01/19 00:55:19;;;;;;;9.15;5.13;;;;;;;0.44;100.00;101326.53;5060094;28;20064;-65
2024/01/19 00:58:07;;;;;;;11.93;5.43;;;;;;;0.36;100.00;101325.63;5057973;28;20183;-65
2024/01/19 01:00:56;;;;;;;10.23;5.10;;;;;;;0.37;100.00;101332.66;5058652;28;20564;-65
2024/01/19 01:03:44;;;;;;;10.65;4.95;;;;;;;0.39;100.00;101325.25;5074144;28;20056;-65
2024/01/19 01:06:32;;;;;;;11.77;5.07;;;;;;;0.45;100.00;101317.47;5074422;28;20041;-65
2024/01/19 01:09:20;;;;;;;11.73;5.07;;;;;;;0.49;100.00;101324.94;5058339;28;20356;-65
2024/01/19 01:12:08;;;;;;;11.43;5.18;;;;;;;0.51;100.00;101322.09;5059464;28;20060;-67
2024/01/19 01:14:56;;;;;;;11.68;5.20;;;;;;;0.53;100.00;101320.03;5064187;28;20060;-65
2024/01/19 01:17:45;;;;;;;10.50;5.15;;;;;;;0.53;100.00;101314.66;5081903;28;20048;-65
2024/01/19 01:20:33;;;;;;;8.43;4.90;;;;;;;0.54;100.00;101332.44;5080325;28;20045;-64
2024/01/19 01:23:21;;;;;;;10.40;5.15;;;;;;;0.53;100.00;101314.66;5073219;28;20044;-64
2024/01/19 01:26:09;;;;;;;10.50;5.03;;;;;;;0.53;100.00;101320.03;5060507;28;20062;-64
2024/01/19 01:28:57;;;;;;;10.30;4.85;;;;;;;0.52;100.00;101326.41;5045971;28;20048;-66
2024/01/19 01:31:45;;;;;;;9.70;5.30;;;;;;;0.52;100.00;101326.41;5083851;28;20053;-66
2024/01/19 01:34:33;;;;;;;11.07;4.97;;;;;;;0.54;100.00;101327.88;5075048;28;20123;-66
2024/01/19 01:37:21;;;;;;;11.00;4.85;;;;;;;0.54;100.00;101335.09;5061634;28;20041;-66
2024/01/19 01:40:11;;;;;;;9.15;4.45;;;;;;;0.53;100.00;101333.44;5038625;28;20511;-65
2024/01/19 01:43:06;;;;;;;9.13;5.03;;;;;;;0.56;100.00;101338.44;5052253;28;20056;-65
2024/01/19 01:45:54;;;;;;;8.02;4.35;;;;;;;0.57;100.00;101326.69;5053366;28;20122;-66
2024/01/19 01:48:42;;;;;;;7.95;4.35;;;;;;;0.59;100.00;101330.00;5030846;28;20045;-66
2024/01/19 01:51:31;;;;;;;9.52;5.05;;;;;;;0.59;100.00;101330.00;5072666;28;20049;-66
2024/01/19 01:54:19;;;;;;;9.27;4.45;;;;;;;0.59;100.00;101335.38;5038904;28;20194;-66
2024/01/19 01:57:08;;;;;;;9.40;4.68;;;;;;;0.58;100.00;101339.09;5037057;28;20162;-66
2024/01/19 01:59:56;;;;;;;10.43;5.07;;;;;;;0.55;100.00;101344.81;5051712;28;20073;-66
2024/01/19 02:02:45;;;;;;;10.43;5.15;;;;;;;0.52;100.00;101350.56;5018230;28;20093;-65
2024/01/19 02:05:33;;;;;;;11.88;5.20;;;;;;;0.50;100.00;101341.88;5032299;28;20060;-65
2024/01/19 02:08:21;;;;;;;10.27;5.00;;;;;;;0.49;100.00;101350.94;5047642;28;20049;-66
2024/01/19 02:11:10;;;;;;;12.25;4.90;;;;;;;0.48;100.00;101351.94;5062099;28;20052;-66
2024/01/19 02:13:58;;;;;;;9.43;4.85;;;;;;;0.45;100.00;101355.81;5030913;28;20176;-66
2024/01/19 02:16:46;;;;;;;12.13;4.70;;;;;;;0.44;100.00;101353.34;5031427;28;20045;-65
2024/01/19 02:19:35;;;;;;;11.48;4.80;;;;;;;0.44;100.00;101364.91;5046085;28;20068;-66
2024/01/19 02:22:23;;;;;;;10.73;4.65;;;;;;;0.42;100.00;101366.94;5051999;28;20056;-66
2024/01/19 02:25:12;;;;;;;8.80;4.82;;;;;;;0.42;100.00;101378.47;5025322;28;20092;-65
2024/01/19 02:28:01;;;;;;;6.57;4.20;;;;;;;0.41;100.00;101379.50;5037636;28;20560;-65
2024/01/19 02:30:49;;;;;;;7.07;3.97;;;;;;;0.41;100.00;101376.00;5059253;28;20048;-66
2024/01/19 02:33:37;;;;;;;9.50;3.80;;;;;;;0.41;100.00;101382.19;5052433;28;20054;-67
2024/01/19 02:36:25;;;;;;;10.70;4.78;;;;;;;0.40;100.00;101388.56;5071370;28;20045;-66
2024/01/19 02:39:13;;;;;;;8.32;3.97;;;;;;;0.37;100.00;101391.63;5044303;28;20056;-66
2024/01/19 02:42:01;;;;;;;10.23;4.45;;;;;;;0.35;100.00;101392.81;5052337;28;20140;-67
2024/01/19 02:44:49;;;;;;;7.00;3.95;;;;;;;0.31;100.00;101392.34;5052731;28;20456;-65
2024/01/19 02:47:37;;;;;;;5.78;3.50;;;;;;;0.32;100.00;101399.38;5036579;28;20057;-66
2024/01/19 02:50:25;;;;;;;9.00;4.22;;;;;;;0.34;100.00;101405.41;5059293;28;20124;-66
2024/01/19 02:53:13;;;;;;;10.82;4.30;;;;;;;0.33;100.00;101406.41;5048298;28;20174;-65
2024/01/19 02:56:01;;;;;;;7.05;3.60;;;;;;;0.31;100.00;101407.59;5070511;28;20167;-65
2024/01/19 02:58:49;;;;;;;10.43;4.18;;;;;;;0.29;100.00;101405.13;5083552;28;20119;-66
2024/01/19 03:01:37;;;;;;;12.40;5.10;;;;;;;0.31;100.00;101412.97;5077147;28;20051;-65
2024/01/19 03:04:25;;;;;;;6.75;3.80;;;;;;;0.31;100.00;101415.66;5074127;28;20051;-71
2024/01/19 03:07:15;;;;;;;7.70;3.80;;;;;;;0.32;100.00;101410.13;5044379;28;20055;-65
2024/01/19 03:10:04;;;;;;;8.13;3.90;;;;;;;0.32;100.00;101412.78;5075181;28;20083;-66
2024/01/19 03:12:52;;;;;;;8.23;4.03;;;;;;;0.34;100.00;101410.75;5047365;28;20045;-66
2024/01/19 03:15:40;;;;;;;9.77;4.22;;;;;;;0.35;100.00;101415.09;5073847;28;20040;-66
2024/01/19 03:18:28;;;;;;;11.38;4.10;;;;;;;0.34;100.00;101402.72;5061259;28;20055;-66
2024/01/19 03:21:16;;;;;;;8.68;3.88;;;;;;;0.33;100.00;101417.13;5060727;28;20456;-65
2024/01/19 03:24:05;;;;;;;8.82;3.70;;;;;;;0.32;100.00;101409.28;5047084;28;20176;-65
2024/01/19 03:26:53;;;;;;;8.10;3.78;;;;;;;0.32;100.00;101418.16;5062159;28;20079;-65
2024/01/19 03:29:41;;;;;;;9.20;4.28;;;;;;;0.34;100.00;101413.44;5057307;28;20051;-66
2024/01/19 03:32:29;;;;;;;6.63;3.55;;;;;;;0.35;100.00;101420.44;5034704;28;20043;-66
2024/01/19 03:35:18;;;;;;;9.70;4.10;;;;;;;0.35;100.00;101425.00;5072990;28;20400;-66
2024/01/19 03:38:06;;;;;;;8.85;3.88;;;;;;;0.34;100.00;101421.47;5073703;28;20040;-66
2024/01/19 03:40:54;;;;;;;9.77;4.05;;;;;;;0.34;100.00;101418.81;5061512;28;20047;-67
2024/01/19 03:43:43;;;;;;;10.05;4.13;;;;;;;0.33;100.00;101422.47;5074718;28;20124;-66
2024/01/19 03:46:31;;;;;;;6.75;3.80;;;;;;;0.34;100.00;101421.47;5054403;28;20053;-65
2024/01/19 03:49:20;;;;;;;6.65;3.30;;;;;;;0.35;100.00;101419.63;5061502;28;20048;-66
2024/01/19 03:52:08;;;;;;;8.63;3.65;;;;;;;0.32;100.00;101418.16;5074705;28;20150;-65
2024/01/19 03:54:56;;;;;;;8.93;4.18;;;;;;;0.33;100.00;101427.84;5073210;28;20049;-66
2024/01/19 03:57:44;;;;;;;6.78;3.60;;;;;;;0.32;100.00;101420.84;5069210;28;20079;-65
2024/01/19 04:00:32;;;;;;;8.23;3.80;;;;;;;0.29;100.00;101415.84;5076607;28;20131;-66
2024/01/19 04:03:20;;;;;;;9.18;3.63;;;;;;;0.31;100.00;101424.50;5059741;28;20520;-65
2024/01/19 04:06:08;;;;;;;8.65;4.07;;;;;;;0.32;100.00;101426.19;5059433;28;20044;-66
2024/01/19 04:08:57;;;;;;;7.55;3.58;;;;;;;0.31;100.00;101421.84;5032769;28;20044;-65
2024/01/19 04:11:45;;;;;;;7.80;3.83;;;;;;;0.34;100.00;101431.38;5053071;28;20055;-64
2024/01/19 04:14:33;;;;;;;8.75;4.20;;;;;;;0.34;100.00;101429.53;5034453;28;20131;-65
2024/01/19 04:17:21;;;;;;;8.63;4.03;;;;;;;0.33;100.00;101438.56;5075014;28;20051;-65
2024/01/19 04:20:10;;;;;;;9.35;3.90;;;;;;;0.35;100.00;101441.06;5075259;28;20130;-66
2024/01/19 04:22:58;;;;;;;9.90;3.83;;;;;;;0.34;100.00;101442.09;5083004;28;20040;-66
2024/01/19 04:25:46;;;;;;;8.88;3.88;;;;;;;0.34;100.00;101450.13;5083255;28;20048;-65
2024/01/19 04:28:34;;;;;;;9.93;3.92;;;;;;;0.33;100.00;101449.28;5081454;28;20084;-65
2024/01/19 04:31:22;;;;;;;9.25;3.85;;;;;;;0.33;100.00;101449.28;5067220;28;20048;-65
2024/01/19 04:34:10;;;;;;;10.77;4.00;;;;;;;0.31;100.00;101461.22;5036363;28;20195;-65
2024/01/19 04:36:59;;;;;;;9.48;3.80;;;;;;;0.30;100.00;101464.91;5074506;28;20512;-66
2024/01/19 04:39:47;;;;;;;14.45;4.45;;;;;;;0.30;100.00;101467.59;5074565;28;20049;-66
2024/01/19 04:42:35;;;;;;;9.43;3.97;;;;;;;0.29;100.00;101473.94;5047035;28;20056;-66
2024/01/19 04:45:23;;;;;;;9.50;4.25;;;;;;;0.30;100.00;101476.47;5045035;28;20127;-66
2024/01/19 04:48:11;;;;;;;9.85;3.97;;;;;;;0.32;100.00;101484.34;5053897;28;20049;-65
2024/01/19 04:50:59;;;;;;;8.68;4.35;;;;;;;0.30;100.00;101481.00;5038953;28;20152;-66
2024/01/19 04:53:48;;;;;;;8.38;4.20;;;;;;;0.29;100.00;101482.00;5049226;28;20142;-66
2024/01/19 04:56:36;;;;;;;9.43;4.07;;;;;;;0.27;100.00;101479.53;5031496;28;20053;-66
2024/01/19 04:59:24;;;;;;;9.73;4.13;;;;;;;0.27;100.00;101482.19;5045309;28;20053;-66
2024/01/19 05:02:12;;;;;;;9.05;4.00;;;;;;;0.23;100.00;101491.63;5073448;28;20551;-66
2024/01/19 05:05:02;;;;;;;9.63;4.53;;;;;;;0.24;100.00;101487.94;5073435;28;20566;-64
2024/01/19 05:07:50;;;;;;;10.15;4.32;;;;;;;0.26;100.00;101495.78;5059149;28;20060;-66
2024/01/19 05:10:38;;;;;;;9.93;3.97;;;;;;;0.25;100.00;101500.31;5057357;28;20135;-65
2024/01/19 05:13:26;;;;;;;9.23;4.32;;;;;;;0.26;100.00;101504.63;5058832;28;20052;-66
2024/01/19 05:16:14;;;;;;;9.55;4.10;;;;;;;0.24;100.00;101504.00;5073465;28;20056;-65
2024/01/19 05:19:03;;;;;;;10.80;4.45;;;;;;;0.24;100.00;101506.69;5045194;28;20041;-67
2024/01/19 05:21:51;;;;;;;11.52;5.10;;;;;;;0.26;100.00;101514.53;5042939;28;20404;-65
2024/01/19 05:24:43;;;;;;;11.60;4.88;;;;;;;0.25;100.00;101521.75;5058785;28;20040;-66
2024/01/19 05:27:31;;;;;;;11.38;4.47;;;;;;;0.26;100.00;101522.56;5071090;28;20135;-65
2024/01/19 05:30:19;;;;;;;13.25;4.65;;;;;;;0.26;100.00;101526.06;5065906;28;20135;-65
2024/01/19 05:33:07;;;;;;;11.70;5.05;;;;;;;0.27;100.00;101535.81;5079121;28;20066;-66
2024/01/19 05:35:56;;;;;;;10.93;4.88;;;;;;;0.27;100.00;101541.16;5066945;28;20063;-67
2024/01/19 05:38:44;;;;;;;9.02;4.57;;;;;;;0.30;100.00;101546.16;5079576;28;20055;-66
2024/01/19 05:41:32;;;;;;;11.18;4.60;;;;;;;0.28;100.00;101553.53;5061057;28;20051;-63
2024/01/19 05:44:20;;;;;;;13.27;4.80;;;;;;;0.27;100.00;101589.41;5082337;28;20044;-66
2024/01/19 05:47:08;;;;;;;13.15;4.80;;;;;;;0.24;100.00;101619.25;5081538;28;20052;-67
2024/01/19 05:49:56;;;;;;;12.52;4.93;;;;;;;0.23;100.00;101622.09;5063540;28;20138;-66
2024/01/19 05:52:45;;;;;;;11.98;5.10;;;;;;;0.18;100.00;101634.19;5078119;28;20476;-65
2024/01/19 05:55:33;;;;;;;11.25;4.85;;;;;;;0.17;100.00;101640.56;5058381;28;20077;-66
2024/01/19 05:58:21;;;;;;;13.05;4.75;;;;;;;0.16;100.00;101630.84;5052860;28;20056;-67
2024/01/19 06:01:09;;;;;;;10.20;4.45;;;;;;;0.18;100.00;101623.47;5061818;28;20607;-66
2024/01/19 06:04:01;;;;;;;9.43;4.68;;;;;;;0.25;100.00;101623.59;5073046;28;20120;-67
2024/01/19 06:06:49;;;;;;;6.93;3.78;;;;;;;0.30;100.00;101623.03;5039036;28;20059;-65
2024/01/19 06:09:37;;;;;;;9.00;4.15;;;;;;;0.32;100.00;101624.53;5057336;28;20086;-68
2024/01/19 06:12:26;;;;;;;12.70;4.90;;;;;;;0.33;100.00;101630.72;5059015;28;20132;-65
2024/01/19 06:15:14;;;;;;;9.38;4.68;;;;;;;0.30;100.00;101629.22;5072473;28;20041;-66
2024/01/19 06:18:02;;;;;;;10.90;4.43;;;;;;;0.30;100.00;101637.28;5054752;28;20040;-67
2024/01/19 06:20:51;;;;;;;11.20;4.40;;;;;;;0.28;100.00;101639.31;5051874;28;20041;-66
2024/01/19 06:23:40;;;;;;;12.85;4.80;;;;;;;0.22;100.00;101632.00;5077449;28;20076;-65
2024/01/19 06:26:32;;;;;;;13.10;5.60;;;;;;;0.13;100.00;101646.47;5024661;28;20045;-66
2024/01/19 06:29:20;;;;;;;11.27;5.70;;;;;;;0.08;100.00;101654.22;5057763;28;20086;-66
2024/01/19 06:32:08;;;;;;;12.43;5.32;;;;;;;0.03;100.00;101659.28;5076166;28;20049;-67
2024/01/19 06:34:56;;;;;;;8.38;4.10;;;;;;;0.06;100.00;101662.41;5049973;28;20040;-66
2024/01/19 06:37:44;;;;;;;12.90;5.40;;;;;;;0.09;100.00;101671.94;5074325;28;20048;-65
2024/01/19 06:40:32;;;;;;;10.25;4.82;;;;;;;0.12;100.00;101664.41;5081645;28;20044;-66
2024/01/19 06:43:20;;;;;;;8.63;3.95;;;;;;;0.14;100.00;101665.03;5072405;28;20045;-67
2024/01/19 06:46:08;;;;;;;11.65;5.13;;;;;;;0.15;100.00;101663.19;5073676;28;20055;-67
2024/01/19 06:48:56;;;;;;;10.23;5.43;;;;;;;0.13;100.00;101678.63;5056701;28;20121;-65
2024/01/19 06:51:47;;;;;;;8.18;4.65;;;;;;;0.10;100.00;101681.66;5057702;28;20282;-66
2024/01/19 06:54:37;;;;;;;12.30;5.57;;;;;;;0.08;100.00;101681.00;5078011;28;20056;-66
2024/01/19 06:57:25;;;;;;;11.65;5.55;;;;;;;0.06;100.00;101680.34;5071230;28;20199;-66
2024/01/19 07:00:31;;;;;;;10.50;5.15;;;;;;;0.06;100.00;101688.38;4970517;28;10000712;-67
2024/01/19 07:03:21;;;;;;;10.52;4.93;;;;;;;0.05;100.00;101684.88;5050733;28;20112;-64
2024/01/19 07:06:09;;;;;;;13.25;5.43;;;;;;;0.03;100.00;101700.28;5072869;28;20071;-66
2024/01/19 07:08:57;;;;;;;13.07;5.35;;;;;;;-0.01;100.00;101707.81;5058055;28;20424;-66
2024/01/19 07:11:46;;;;;;;11.25;5.53;;;;;;;-0.04;100.00;101716.22;5069759;28;20408;-67
2024/01/19 07:14:34;;;;;;;12.25;5.30;;;;;;;-0.04;100.00;101718.06;5054433;28;20052;-65
2024/01/19 07:17:22;;;;;;;10.57;5.15;;;;;;;-0.05;100.00;101719.06;5051027;28;20065;-66
2024/01/19 07:20:11;;;;;;;14.02;6.32;;;;;;;-0.04;100.00;101729.63;5053600;28;20082;-66
2024/01/19 07:23:01;;;;;;;13.85;6.18;;;;;;;-0.04;100.00;101726.94;5054210;28;20057;-67
2024/01/19 07:25:49;;;;;;;12.05;5.90;;;;;;;-0.04;100.00;101732.28;5044920;28;20127;-67
2024/01/19 07:28:37;;;;;;;11.63;5.60;;;;;;;-0.05;100.00;101746.72;5043481;28;20137;-66
2024/01/19 07:31:25;;;;;;;13.15;5.80;;;;;;;-0.06;100.00;101734.31;5056931;28;20045;-67
2024/01/19 07:34:13;;;;;;;13.23;5.80;;;;;;;-0.06;100.00;101744.19;5056817;28;20300;-67
2024/01/19 07:37:02;;;;;;;14.30;5.55;;;;;;;-0.08;100.00;101749.72;5071532;28;20260;-66
2024/01/19 07:39:50;;;;;;;12.95;5.68;;;;;;;-0.10;100.00;101749.06;5067594;28;20041;-67
2024/01/19 07:42:38;;;;;;;11.45;5.47;;;;;;;-0.11;100.00;101752.75;5053553;28;20136;-67
2024/01/19 07:45:26;;;;;;;14.10;6.35;;;;;;;-0.12;100.00;101758.28;5066261;28;20497;-67
2024/01/19 07:48:14;;;;;;;13.57;6.03;;;;;;;-0.13;100.00;101765.47;5068838;28;20052;-67
2024/01/19 07:51:03;;;;;;;11.65;5.20;;;;;;;-0.11;100.00;101763.47;5068162;28;20099;-67
2024/01/19 07:53:51;;;;;;;9.70;5.15;;;;;;;-0.11;100.00;101763.47;5056292;28;20064;-67
2024/01/19 07:56:40;;;;;;;12.07;5.28;;;;;;;-0.10;100.00;101764.28;5028971;28;20044;-66
2024/01/19 07:59:28;;;;;;;9.85;5.50;;;;;;;-0.11;100.00;101776.88;5072542;28;20488;-67
2024/01/19 08:02:16;;;;;;;12.73;6.53;;;;;;;-0.09;100.00;101774.03;5083382;28;20048;-66
2024/01/19 08:05:04;;;;;;;10.65;5.95;;;;;;;-0.10;100.00;101781.19;5092714;28;20184;-68
2024/01/19 08:07:52;;;;;;;11.82;6.25;;;;;;;-0.10;100.00;101780.38;5060531;28;20488;-66
2024/01/19 08:10:40;;;;;;;12.55;6.30;;;;;;;-0.10;100.00;101785.72;5060958;28;20139;-67
2024/01/19 08:13:28;;;;;;;11.70;5.80;;;;;;;-0.12;100.00;101798.44;5061575;28;20051;-67
2024/01/19 08:16:16;;;;;;;11.68;5.97;;;;;;;-0.13;100.00;101800.31;5045357;28;20186;-67
2024/01/19 08:19:04;;;;;;;12.95;5.75;;;;;;;-0.13;100.00;101794.94;5060311;28;20493;-67
2024/01/19 08:21:53;;;;;;;16.95;7.65;;;;;;;-0.12;100.00;101799.31;5059560;28;20051;-67
2024/01/19 08:24:41;;;;;;;12.07;5.55;;;;;;;-0.10;100.00;101797.28;5074614;28;20100;-67
2024/01/19 08:27:29;;;;;;;13.20;6.05;;;;;;;-0.07;100.00;101791.59;5044390;28;20053;-67
2024/01/19 08:30:18;;;;;;;10.73;5.80;;;;;;;-0.07;100.00;101804.97;5072434;28;20048;-67
2024/01/19 08:33:07;;;;;;;13.07;6.30;;;;;;;-0.10;100.00;101812.50;5074543;28;20070;-67
2024/01/19 08:35:56;;;;;;;10.00;5.57;;;;;;;-0.09;100.00;101820.38;5074086;28;20039;-67
2024/01/19 08:38:44;;;;;;;11.98;5.80;;;;;;;-0.06;100.00;101819.19;5064143;28;20049;-66
2024/01/19 08:41:41;;;;;;;13.10;6.07;;;;;;;-0.01;100.00;101830.22;5032810;28;20459;-67
2024/01/19 08:44:29;;;;;;;9.93;5.55;;;;;;;-0.02;100.00;101832.09;5044805;28;20045;-66
2024/01/19 08:47:18;;;;;;;12.30;6.15;;;;;;;-0.02;100.00;101836.59;5032670;28;20044;-67
2024/01/19 08:50:06;;;;;;;14.30;6.78;;;;;;;0.01;100.00;101840.78;5074068;28;20076;-67
2024/01/19 08:52:55;;;;;;;13.27;6.43;;;;;;;0.04;100.00;101845.78;5058558;28;20139;-66
2024/01/19 08:55:43;;;;;;;11.88;6.03;;;;;;;0.08;100.00;101841.75;5060532;28;20118;-66
2024/01/19 08:58:31;;;;;;;11.40;6.28;;;;;;;0.08;100.00;101847.13;5071388;28;20064;-67
2024/01/19 09:01:20;;;;;;;13.32;6.57;;;;;;;0.11;100.00;101844.09;5046177;28;20044;-67
2024/01/19 09:04:08;;;;;;;11.93;6.25;;;;;;;0.12;100.00;101854.66;5046605;28;20059;-68
2024/01/19 09:06:57;;;;;;;13.43;6.75;;;;;;;0.14;100.00;101857.13;5057532;28;20131;-66
2024/01/19 09:09:47;;;;;;;11.93;6.38;;;;;;;0.14;100.00;101860.63;5047059;28;20238;-66
2024/01/19 09:12:35;;;;;;;12.18;6.30;;;;;;;0.12;100.00;101875.22;5074682;28;20055;-66
2024/01/19 09:15:23;;;;;;;12.57;6.63;;;;;;;0.14;100.00;101871.34;5075643;28;20051;-65
2024/01/19 09:18:11;;;;;;;13.25;6.22;;;;;;;0.14;100.00;101874.03;5045961;28;20417;-67
2024/01/19 09:20:59;;;;;;;14.38;6.45;;;;;;;0.21;100.00;101874.19;5074630;28;20417;-68
2024/01/19 09:23:47;;;;;;;14.43;6.18;;;;;;;0.19;100.00;101892.28;5072406;28;20071;-67
2024/01/19 09:26:35;;;;;;;14.40;6.38;;;;;;;0.29;100.00;101887.56;5046381;28;20037;-67
2024/01/19 09:29:24;;;;;;;10.77;5.93;;;;;;;0.33;100.00;101894.22;5054220;28;20048;-67
2024/01/19 09:32:16;;;;;;;14.10;6.57;;;;;;;0.30;100.00;101893.75;5043648;28;20041;-67
2024/01/19 09:35:04;;;;;;;11.20;6.18;;;;;;;0.28;100.00;101911.84;5075946;28;20048;-66
2024/01/19 09:37:52;;;;;;;11.65;5.93;;;;;;;0.27;100.00;101908.34;5045640;28;20491;-67
2024/01/19 09:40:43;;;;;;;11.32;6.03;;;;;;;0.26;100.00;101914.69;5074518;28;20041;-66
2024/01/19 09:43:34;;;;;;;11.57;5.05;;;;;;;0.27;100.00;101912.88;5039486;28;20067;-66
2024/01/19 09:46:30;;;;;;;13.75;5.90;;;;;;;0.28;100.00;101915.38;5040154;28;20085;-66
2024/01/19 09:49:52;;;;;;;10.00;4.88;;;;;;;0.34;100.00;101913.84;5044939;28;20097;-65
2024/01/19 09:53:00;;;;;;;8.63;4.90;;;;;;;0.36;100.00;101926.06;5070160;28;20448;-67
2024/01/19 09:55:48;;;;;;;11.70;5.40;;;;;;;0.37;100.00;101927.75;5077816;28;20052;-67
2024/01/19 09:58:36;;;;;;;10.73;5.05;;;;;;;0.40;100.00;101932.75;5063950;28;20508;-67
2024/01/19 10:01:26;;;;;;;7.78;4.00;;;;;;;0.42;100.00;101941.47;5075088;28;20052;-67
2024/01/19 10:04:14;;;;;;;14.32;5.22;;;;;;;0.45;100.00;101942.13;5068598;28;20045;-66
2024/01/19 10:07:03;;;;;;;10.60;4.47;;;;;;;0.49;100.00;101946.13;5049791;28;20108;-67
2024/01/19 10:09:51;;;;;;;9.70;4.72;;;;;;;0.49;100.00;101952.31;5042094;28;20048;-66
2024/01/19 10:12:40;;;;;;;11.18;4.43;;;;;;;0.51;100.00;101962.88;5058872;28;20074;-66
2024/01/19 10:15:28;;;;;;;12.27;4.93;;;;;;;0.57;100.00;101964.88;5046951;28;20471;-65
2024/01/19 10:18:18;;;;;;;13.43;4.65;;;;;;;0.60;100.00;101953.78;5056129;28;20052;-67
2024/01/19 10:21:06;;;;;;;11.10;5.07;;;;;;;0.66;100.00;101958.47;5057025;28;20059;-67
2024/01/19 10:24:11;;;;;;;12.90;4.97;;;;;;;0.67;100.00;101957.44;5073154;28;20083;-66
2024/01/19 10:26:59;;;;;;;9.73;4.30;;;;;;;0.72;100.00;101962.28;5058330;28;20052;-66
2024/01/19 10:29:48;;;;;;;10.82;4.45;;;;;;;0.74;100.00;101958.41;5059586;28;20068;-66
2024/01/19 10:32:46;;;;;;;9.43;4.43;;;;;;;0.76;100.00;101953.72;5062289;28;20052;-66
2024/01/19 10:35:37;;;;;;;9.15;4.35;;;;;;;0.79;100.00;101953.34;5078937;28;20056;-65
2024/01/19 10:38:28;;;;;;;9.52;4.53;;;;;;;0.81;100.00;101962.06;5045092;28;20044;-66
2024/01/19 10:41:17;;;;;;;9.13;4.10;;;;;;;0.83;100.00;101953.84;5042232;28;20044;-66
2024/01/19 10:44:13;;;;;;;10.23;4.20;;;;;;;0.87;100.00;101963.22;5056775;28;20050;-67
2024/01/19 10:47:01;;;;;;;9.00;3.72;;;;;;;0.90;100.00;101964.72;5044921;28;20416;-65
2024/01/19 10:50:05;;;;;;;9.75;4.13;;;;;;;0.95;100.00;101975.75;5041920;28;20048;-66
2024/01/19 10:52:55;;;;;;;14.20;4.88;;;;;;;0.97;100.00;101971.06;5043657;28;20111;-67
2024/01/19 10:55:48;;;;;;;11.00;4.80;;;;;;;1.05;100.00;101965.63;5037277;28;20075;-66
2024/01/19 10:58:36;;;;;;;9.27;4.50;;;;;;;1.07;100.00;101966.28;5014687;28;20049;-65
2024/01/19 11:01:24;;;;;;;10.75;4.78;;;;;;;1.11;100.00;101975.69;5053467;28;20524;-67
2024/01/19 11:04:13;;;;;;;11.32;4.65;;;;;;;1.11;100.00;101967.63;5038528;28;20045;-66
2024/01/19 11:07:01;;;;;;;9.65;4.90;;;;;;;1.16;100.00;101970.59;5045591;28;20083;-66
2024/01/19 11:09:49;;;;;;;12.55;4.80;;;;;;;1.17;100.00;101969.59;5051907;28;20049;-67
2024/01/19 11:12:39;;;;;;;10.27;4.70;;;;;;;1.22;100.00;101966.38;5037124;28;20080;-66
2024/01/19 11:15:41;;;;;;;11.27;5.25;;;;;;;1.20;100.00;101971.94;5024547;28;20092;-66
2024/01/19 11:18:29;;;;;;;11.68;4.88;;;;;;;1.18;100.00;101971.28;5066088;28;20041;-67
2024/01/19 11:21:18;;;;;;;12.32;5.10;;;;;;;1.21;100.00;101962.84;5044343;28;20144;-66
2024/01/19 11:24:06;;;;;;;12.23;5.40;;;;;;;1.20;100.00;101961.19;5057012;28;20071;-66
2024/01/19 11:27:04;;;;;;;12.65;5.07;;;;;;;1.17;100.00;101961.53;5056559;28;20195;-66
2024/01/19 11:30:00;;;;;;;12.23;5.10;;;;;;;1.17;100.00;101964.22;5021245;28;20049;-66
2024/01/19 11:32:48;;;;;;;10.88;5.30;;;;;;;1.19;100.00;101964.03;5070202;28;20062;-67
2024/01/19 11:35:40;;;;;;;18.48;5.20;;;;;;;1.18;100.00;101957.00;5067742;28;20048;-66
2024/01/19 11:38:43;;;;;;;14.73;5.38;;;;;;;1.19;100.00;101959.50;5046576;28;20045;-67
2024/01/19 11:41:34;;;;;;;13.18;5.40;;;;;;;1.22;100.00;101969.88;5081813;28;20059;-66
2024/01/19 11:44:45;;;;;;;11.73;5.35;;;;;;;1.27;100.00;101961.28;5079043;28;20133;-66
2024/01/19 11:47:37;;;;;;;13.70;5.85;;;;;;;1.28;100.00;101969.19;5058584;28;20052;-65
2024/01/19 11:50:47;;;;;;;14.88;5.70;;;;;;;1.33;100.00;101974.03;5059242;28;20052;-66
2024/01/19 11:54:01;;;;;;;11.13;5.28;;;;;;;1.39;100.00;101977.84;5075040;28;20063;-67
2024/01/19 11:56:49;;;;;;;12.90;5.17;;;;;;;1.42;100.00;101975.63;4348799;28;9999883;-66
2024/01/19 11:59:39;;;;;;;14.77;5.28;;;;;;;1.45;100.00;101977.13;5072968;28;20493;-66
2024/01/19 12:02:31;;;;;;;14.75;5.85;;;;;;;1.48;100.00;101974.06;5011943;28;20520;-68
2024/01/19 12:05:20;;;;;;;11.55;5.85;;;;;;;1.52;100.00;101971.88;5044055;28;20058;-67
2024/01/19 12:08:11;;;;;;;10.80;4.82;;;;;;;1.52;100.00;101969.19;5063390;28;20052;-68
2024/01/19 12:11:03;;;;;;;13.10;5.38;;;;;;;1.54;100.00;101973.38;5056411;28;20045;-67
2024/01/19 12:13:51;;;;;;;13.07;5.50;;;;;;;1.59;100.00;101976.34;5049003;28;20037;-67
2024/01/19 12:16:53;;;;;;;18.33;6.18;;;;;;;1.65;100.00;101980.16;5040573;28;20049;-67
2024/01/19 12:19:41;;;;;;;16.80;6.00;;;;;;;1.67;100.00;101973.59;5053845;28;20136;-67
2024/01/19 12:22:30;;;;;;;11.95;5.55;;;;;;;1.69;100.00;101982.31;5057543;28;20120;-66
2024/01/19 12:25:21;;;;;;;13.57;5.82;;;;;;;1.69;100.00;101976.09;5050054;28;20531;-68
2024/01/19 12:28:09;;;;;;;13.80;6.30;;;;;;;1.76;100.00;101976.22;5050589;28;20060;-68
2024/01/19 12:30:57;;;;;;;13.82;5.53;;;;;;;1.76;100.00;101981.59;5056059;28;20063;-68
2024/01/19 12:33:45;;;;;;;12.52;5.03;;;;;;;1.79;100.00;101989.28;5056569;28;20087;-69
2024/01/19 12:36:34;;;;;;;15.48;5.22;;;;;;;1.78;100.00;101982.22;5070620;28;20056;-67
2024/01/19 12:39:22;;;;;;;14.30;5.90;;;;;;;1.83;100.00;101982.53;5071082;28;20052;-65
2024/01/19 12:42:10;;;;;;;12.15;5.43;;;;;;;1.83;100.00;101983.38;5071554;28;20067;-66
2024/01/19 12:45:00;;;;;;;15.27;5.85;;;;;;;1.87;100.00;101989.19;5057079;28;20040;-67
2024/01/19 12:47:51;;;;;;;16.48;7.32;;;;;;;1.91;100.00;101985.16;5044866;28;20056;-68
2024/01/19 12:50:39;;;;;;;14.23;6.13;;;;;;;1.91;100.00;101991.34;5057993;28;20060;-68
2024/01/19 12:53:28;;;;;;;12.50;5.80;;;;;;;1.94;100.00;101992.84;5059572;28;20523;-67
2024/01/19 12:56:28;;;;;;;13.90;5.45;;;;;;;1.95;100.00;101996.34;5016680;28;20059;-68
2024/01/19 12:59:22;;;;;;;22.08;6.10;;;;;;;1.98;100.00;101988.78;5043550;28;20448;-66
2024/01/19 13:02:14;;;;;;;15.95;6.40;;;;;;;2.01;100.00;101991.09;5036379;28;20131;-67